WetterOnline ( https://www.wetteronline.de )

Wetter aktuell Bad Neustadt/Saale

Aktuelles Wetter: Bad Kissingen (266m)

6-stündlich | Neueste Meldungen
Ortszeit Temperatur Wetter
Di, 21.01. 19:00 -0.4° C wolkenlos
Di, 21.01. 13:00 2.3° C leicht bewölkt
Di, 21.01. 7:00 -4.4° C wolkenlos
Di, 21.01. 1:00 -2.7° C wolkenlos
Mo, 20.01. 19:00 0.6° C wolkenlos
Mo, 20.01. 13:00 4.4° C wolkig
Mo, 20.01. 7:00 0.3° C bewölkt
Mo, 20.01. 1:00 1.8° C bedeckt
Ortszeit Temperatur Wetter
Di, 21.01. 23:30 -3.0° C wolkig
Di, 21.01. 23:20 -3.0° C wolkig
Di, 21.01. 23:10 -2.8° C leicht bewölkt
Di, 21.01. 23:00 -2.9° C fast wolkenlos
Di, 21.01. 22:50 -2.9° C fast wolkenlos
Di, 21.01. 22:40 -3.1° C leicht bewölkt
Di, 21.01. 22:30 -2.7° C fast wolkenlos
Di, 21.01. 22:00 -2.7° C wolkenlos
Di, 21.01. 21:30 -2.6° C wolkenlos
Di, 21.01. 21:00 -2.1° C wolkenlos
Di, 21.01. 20:30 -1.8° C wolkenlos
Di, 21.01. 20:00 -1.5° C wolkenlos
Ortszeit Relative Feuchte Sichtweite
Di, 21.01. 19:00 90% 35 km
Di, 21.01. 13:00 73% 27 km
Di, 21.01. 7:00 98% 13 km
Di, 21.01. 1:00 96% 16 km
Mo, 20.01. 19:00 81% 28 km
Mo, 20.01. 13:00 64% 30 km
Mo, 20.01. 7:00 96% 23 km
Mo, 20.01. 1:00 92% 30 km
Ortszeit Relative Feuchte Sichtweite
Di, 21.01. 23:30 99% 13 km
Di, 21.01. 23:20 99% -
Di, 21.01. 23:10 98% -
Di, 21.01. 23:00 98% 10 km
Di, 21.01. 22:50 98% -
Di, 21.01. 22:40 99% -
Di, 21.01. 22:30 96% 16 km
Di, 21.01. 22:00 98% 11 km
Di, 21.01. 21:30 96% 14 km
Di, 21.01. 21:00 96% 18 km
Di, 21.01. 20:30 96% 17 km
Di, 21.01. 20:00 93% 21 km
Ortszeit Niederschlagsmenge Niederschlagsart
Di, 21.01. 19:00 0.0 l/m2 in 12 Std. -
Di, 21.01. 13:00 0.0 l/m2 in 6 Std. -
Di, 21.01. 7:00 0.0 l/m2 in 12 Std. -
Di, 21.01. 1:00 0.0 l/m2 in 6 Std. -
Mo, 20.01. 19:00 0.0 l/m2 in 12 Std. -
Mo, 20.01. 13:00 0.0 l/m2 in 6 Std. -
Mo, 20.01. 7:00 0.1 l/m2 in 12 Std. -
Mo, 20.01. 1:00 0.1 l/m2 in 6 Std. Regen
Ortszeit Niederschlagsmenge Niederschlagsart
Di, 21.01. 23:30 0.0 l/m2 in 1 Std. -
Di, 21.01. 23:20 keine Meldung -
Di, 21.01. 23:10 keine Meldung -
Di, 21.01. 23:00 0.0 l/m2 in 1 Std. -
Di, 21.01. 22:50 keine Meldung -
Di, 21.01. 22:40 keine Meldung -
Di, 21.01. 22:30 0.0 l/m2 in 1 Std. -
Di, 21.01. 22:00 0.0 l/m2 in 1 Std. -
Di, 21.01. 21:30 0.0 l/m2 in 1 Std. -
Di, 21.01. 21:00 0.0 l/m2 in 1 Std. -
Di, 21.01. 20:30 0.0 l/m2 in 1 Std. -
Di, 21.01. 20:00 0.0 l/m2 in 1 Std. -
Ortszeit Stärke Spitze Richtung
km/h Bft. km/h Grad Sektor
Di, 21.01. 19:00 0 0 7 - -
Di, 21.01. 13:00 4 1 7 40° NO
Di, 21.01. 7:00 7 2 11 360° N
Di, 21.01. 1:00 7 2 11 10° N
Mo, 20.01. 19:00 7 2 18 10° N
Mo, 20.01. 13:00 9 2 17 50° NO
Mo, 20.01. 7:00 7 2 11 340° N
Mo, 20.01. 1:00 4 1 11 190° S
Ortszeit Stärke Spitze Richtung
km/h Bft. km/h Grad Sektor
Di, 21.01. 23:30 4 1 7 170° S
Di, 21.01. 23:20 4 1 - 170° S
Di, 21.01. 23:10 4 1 - 170° S
Di, 21.01. 23:00 4 1 7 190° S
Di, 21.01. 22:50 4 1 - 190° S
Di, 21.01. 22:40 4 1 - 190° S
Di, 21.01. 22:30 4 1 7 30° NO
Di, 21.01. 22:00 6 1 7 10° N
Di, 21.01. 21:30 4 1 7 310° NW
Di, 21.01. 21:00 6 1 7 10° N
Di, 21.01. 20:30 4 1 7 10° N
Di, 21.01. 20:00 4 1 7 10° N
Ortszeit Untergrenze Bedeckung Gattung
total tief tief mittel hoch
Di, 21.01. 19:00 - 0/8 0/8 - - -
Di, 21.01. 13:00 10500 m 7/8 0/8 - - -
Di, 21.01. 7:00 - 0/8 0/8 - - -
Di, 21.01. 1:00 - 0/8 0/8 - - -
Mo, 20.01. 19:00 - 0/8 0/8 - - -
Mo, 20.01. 13:00 840 m 6/8 6/8 - - -
Mo, 20.01. 7:00 1140 m 7/8 7/8 - - -
Mo, 20.01. 1:00 1260 m 8/8 8/8 - - -
Ortszeit Bedeckungsgrad in Achtel und Wolkenuntergrenze
Di, 21.01. 23:30 2(8700m) 7(9000m)
Di, 21.01. 23:20 2(8700m) 7(9000m)
Di, 21.01. 23:10 2(8700m) 6(9000m)
Di, 21.01. 23:00 2(9000m)
Di, 21.01. 22:50 2(9000m)
Di, 21.01. 22:40 4(9000m)
Di, 21.01. 22:30 1(9000m)
Di, 21.01. 22:00 keine Wolken
Di, 21.01. 21:30 keine Wolken
Di, 21.01. 21:00 keine Wolken
Di, 21.01. 20:30 keine Wolken
Di, 21.01. 20:00 keine Wolken
Ortszeit Luftdruck NN (hPa) Tendenz (hPa in 3 Std.)
Di, 21.01. 19:00 1041 - 0,8
Di, 21.01. 13:00 1043 - 1,5
Di, 21.01. 7:00 1045 - 0,5
Di, 21.01. 1:00 1047 - 0,7
Mo, 20.01. 19:00 1047 0,0
Mo, 20.01. 13:00 1048 + 0,2
Mo, 20.01. 7:00 1047 + 1,2
Mo, 20.01. 1:00 1045 + 1,4
Ortszeit Luftdruck NN (hPa) Tendenz (hPa in 3 Std.)
Di, 21.01. 23:30 1040 - 0,8
Di, 21.01. 23:20 1040 keine Meldung
Di, 21.01. 23:10 1040 keine Meldung
Di, 21.01. 23:00 1040 - 0,7
Di, 21.01. 22:50 1040 keine Meldung
Di, 21.01. 22:40 1040 keine Meldung
Di, 21.01. 22:30 1040 - 0,8
Di, 21.01. 22:00 1040 - 0,6
Di, 21.01. 21:30 1040 - 0,8
Di, 21.01. 21:00 1041 - 0,7
Di, 21.01. 20:30 1041 - 0,6
Di, 21.01. 20:00 1041 - 0,6
Ortszeit Schneehöhe (cm)
Di, 21.01. 19:00 0
Di, 21.01. 13:00 0
Di, 21.01. 7:00 0
Di, 21.01. 1:00 0
Mo, 20.01. 19:00 0
Mo, 20.01. 13:00 0
Mo, 20.01. 7:00 0
Mo, 20.01. 1:00 0
Ortszeit Schneehöhe (cm)
Di, 21.01. 23:30 0
Di, 21.01. 23:20 0
Di, 21.01. 23:10 0
Di, 21.01. 23:00 0
Di, 21.01. 22:50 0
Di, 21.01. 22:40 0
Di, 21.01. 22:30 0
Di, 21.01. 22:00 0
Di, 21.01. 21:30 0
Di, 21.01. 21:00 0
Di, 21.01. 20:30 0
Di, 21.01. 20:00 0
Link zu dieser Seite / Seite empfehlen

Das Wetter in ...